Time;durP1;ratioP1;P1;durP2;ratioP2;P2;SDS_P1;SDS_P2;PMS_P1;PMS_P2;Temp;Humidity;BMP_temperature;BMP_pressure;BME280_temperature;BME280_humidity;BME280_pressure;Samples;Min_cycle;Max_cycle;Signal;HPM_P1;HPM_P2
2022/04/27 00:01:35;;;;;;;;;;;25.50;42.00;;;;;;5078624;28;988;-46
2022/04/27 00:04:03;;;;;;;;;;;25.50;41.90;;;;;;5076018;28;689;-45
2022/04/27 00:06:30;;;;;;;;;;;25.50;42.00;;;;;;5074236;28;1902;-45
2022/04/27 00:08:56;;;;;;;;;;;25.50;41.90;;;;;;5075617;28;951;-46
2022/04/27 00:11:23;;;;;;;;;;;25.50;41.90;;;;;;5075751;28;1019;-46
2022/04/27 00:13:50;;;;;;;;;;;25.50;41.80;;;;;;5075635;28;1475;-48
2022/04/27 00:16:17;;;;;;;;;;;25.50;43.00;;;;;;5077275;28;1025;-46
2022/04/27 00:18:43;;;;;;;;;;;25.50;41.80;;;;;;5077260;28;996;-45
2022/04/27 00:21:12;;;;;;;;;;;25.50;41.70;;;;;;5077069;28;928;-44
2022/04/27 00:23:39;;;;;;;;;;;25.50;41.90;;;;;;5077340;28;1000;-46
2022/04/27 00:26:06;;;;;;;;;;;25.50;41.80;;;;;;5077220;28;2000;-45
2022/04/27 00:28:33;;;;;;;;;;;25.40;41.90;;;;;;5075122;28;945;-44
2022/04/27 00:31:00;;;;;;;;;;;25.40;41.80;;;;;;5076265;28;949;-44
2022/04/27 00:33:27;;;;;;;;;;;25.40;41.80;;;;;;5076725;28;999;-44
2022/04/27 00:35:53;;;;;;;;;;;25.50;41.80;;;;;;5078544;28;960;-44
2022/04/27 00:38:22;;;;;;;;;;;25.50;41.80;;;;;;5077855;28;996;-44
2022/04/27 00:40:48;;;;;;;;;;;25.50;41.80;;;;;;5077975;28;1107;-44
2022/04/27 00:43:15;;;;;;;;;;;25.40;41.80;;;;;;5076736;28;992;-45
2022/04/27 00:45:42;;;;;;;;;;;25.40;41.90;;;;;;5076950;28;985;-44
2022/04/27 00:48:10;;;;;;;;;;;25.40;41.80;;;;;;5076551;28;2043;-44
2022/04/27 00:50:37;;;;;;;;;;;25.40;41.80;;;;;;5077003;28;1175;-41
2022/04/27 00:53:04;;;;;;;;;;;25.40;41.80;;;;;;5076299;28;985;-41
2022/04/27 00:55:32;;;;;;;;;;;25.40;41.90;;;;;;5076609;28;1007;-40
2022/04/27 00:57:59;;;;;;;;;;;25.40;41.90;;;;;;5075840;28;905;-42
2022/04/27 01:00:27;;;;;;;;;;;25.40;41.90;;;;;;5076220;28;954;-43
2022/04/27 01:02:53;;;;;;;;;;;25.40;41.90;;;;;;5076058;28;859;-45
2022/04/27 01:05:21;;;;;;;;;;;25.40;41.90;;;;;;5076620;28;936;-48
2022/04/27 01:07:47;;;;;;;;;;;25.40;41.90;;;;;;5077253;28;1914;-46
2022/04/27 01:10:14;;;;;;;;;;;25.40;41.90;;;;;;5077505;28;1080;-45
2022/04/27 01:12:42;;;;;;;;;;;25.40;41.80;;;;;;5075867;28;1008;-45
2022/04/27 01:15:10;;;;;;;;;;;25.40;41.90;;;;;;5077067;28;992;-45
2022/04/27 01:17:37;;;;;;;;;;;25.40;41.80;;;;;;5076137;28;921;-45
2022/04/27 01:20:04;;;;;;;;;;;25.40;41.80;;;;;;5076946;28;924;-47
2022/04/27 01:22:33;;;;;;;;;;;25.40;41.90;;;;;;5075408;28;956;-46
2022/04/27 01:24:59;;;;;;;;;;;25.40;41.80;;;;;;5075785;28;1027;-45
2022/04/27 01:27:26;;;;;;;;;;;25.40;41.80;;;;;;5075251;28;1983;-44
2022/04/27 01:29:53;;;;;;;;;;;25.40;41.90;;;;;;5076076;28;1003;-46
2022/04/27 01:32:19;;;;;;;;;;;25.40;41.80;;;;;;5076155;28;940;-44
2022/04/27 01:34:46;;;;;;;;;;;25.40;41.70;;;;;;5076130;28;928;-43
2022/04/27 01:40:05;;;;;;;;;;;25.30;41.80;;;;;;5054820;28;1346;-42
2022/04/27 01:42:32;;;;;;;;;;;25.40;41.80;;;;;;5075304;28;1016;-46
2022/04/27 01:44:58;;;;;;;;;;;25.40;41.80;;;;;;5075349;28;997;-43
2022/04/27 01:47:25;;;;;;;;;;;25.40;41.70;;;;;;5075117;28;1984;-43
2022/04/27 01:49:52;;;;;;;;;;;25.40;41.80;;;;;;5076068;28;954;-43
2022/04/27 01:55:05;;;;;;;;;;;25.30;41.70;;;;;;5075186;28;909;-43
2022/04/27 01:57:31;;;;;;;;;;;25.30;41.80;;;;;;5075426;28;940;-43
2022/04/27 01:59:58;;;;;;;;;;;25.30;41.60;;;;;;5075897;28;995;-43
2022/04/27 02:02:25;;;;;;;;;;;25.30;41.70;;;;;;5074766;28;881;-41
2022/04/27 02:04:51;;;;;;;;;;;25.30;41.70;;;;;;5075205;28;968;-42
2022/04/27 02:07:18;;;;;;;;;;;25.40;41.80;;;;;;5077291;28;1986;-43
2022/04/27 02:09:45;;;;;;;;;;;25.30;41.70;;;;;;5073855;28;1010;-43
2022/04/27 02:12:13;;;;;;;;;;;25.40;41.70;;;;;;5074716;28;1027;-43
2022/04/27 02:14:39;;;;;;;;;;;25.30;41.70;;;;;;5075199;28;1054;-42
2022/04/27 02:17:06;;;;;;;;;;;25.30;41.70;;;;;;5075415;28;979;-42
2022/04/27 02:19:33;;;;;;;;;;;25.30;41.70;;;;;;5075568;28;996;-43
2022/04/27 02:22:00;;;;;;;;;;;25.40;41.70;;;;;;5076735;28;1002;-42
2022/04/27 02:24:27;;;;;;;;;;;25.30;41.60;;;;;;5075528;28;1030;-42
2022/04/27 02:26:54;;;;;;;;;;;25.30;41.70;;;;;;5074922;28;1914;-42
2022/04/27 02:29:23;;;;;;;;;;;25.30;41.60;;;;;;5074696;28;1001;-43
2022/04/27 02:31:50;;;;;;;;;;;25.30;41.60;;;;;;5074414;28;1002;-42
2022/04/27 02:34:17;;;;;;;;;;;25.30;41.60;;;;;;5074536;28;861;-44
2022/04/27 02:36:43;;;;;;;;;;;25.30;41.70;;;;;;5074503;28;936;-47
2022/04/27 02:39:10;;;;;;;;;;;25.30;41.60;;;;;;5074584;28;932;-46
2022/04/27 02:41:37;;;;;;;;;;;25.30;41.70;;;;;;5075094;28;1187;-46
2022/04/27 02:44:04;;;;;;;;;;;25.30;41.70;;;;;;5074630;28;1054;-45
2022/04/27 02:46:32;;;;;;;;;;;25.30;41.60;;;;;;5074624;28;966;-44
2022/04/27 02:51:52;;;;;;;;;;;25.30;41.70;;;;;;5075460;28;1049;-44
2022/04/27 02:54:20;;;;;;;;;;;25.20;41.60;;;;;;5073874;28;835;-44
2022/04/27 02:56:47;;;;;;;;;;;25.30;41.70;;;;;;5074328;28;1295;-44
2022/04/27 02:59:14;;;;;;;;;;;25.30;41.70;;;;;;5075061;28;1039;-44
2022/04/27 03:01:42;;;;;;;;;;;25.30;41.70;;;;;;5074350;28;993;-44
2022/04/27 03:04:09;;;;;;;;;;;25.20;41.60;;;;;;5072847;28;981;-44
2022/04/27 03:06:36;;;;;;;;;;;25.30;41.60;;;;;;5073775;28;936;-46
2022/04/27 03:09:04;;;;;;;;;;;25.30;41.60;;;;;;5074610;28;1984;-44
2022/04/27 03:11:36;;;;;;;;;;;25.30;41.50;;;;;;5077362;28;1054;-44
2022/04/27 03:14:14;;;;;;;;;;;25.20;41.50;;;;;;5079701;28;952;-44
2022/04/27 03:16:46;;;;;;;;;;;25.20;41.40;;;;;;5078854;28;992;-44
2022/04/27 03:19:15;;;;;;;;;;;25.20;41.60;;;;;;5078179;28;1319;-44
2022/04/27 03:21:48;;;;;;;;;;;25.20;41.40;;;;;;5079530;28;1112;-44
2022/04/27 03:24:21;;;;;;;;;;;25.20;41.40;;;;;;5078074;28;972;-44
2022/04/27 03:26:49;;;;;;;;;;;25.20;41.40;;;;;;5079104;28;976;-45
2022/04/27 03:29:18;;;;;;;;;;;25.20;41.40;;;;;;5078614;28;1902;-45
2022/04/27 03:31:59;;;;;;;;;;;25.20;41.40;;;;;;5077830;28;999;-44
2022/04/27 03:37:10;;;;;;;;;;;25.20;41.40;;;;;;5077348;28;1641;-45
2022/04/27 03:39:42;;;;;;;;;;;25.20;41.40;;;;;;5077178;28;1228;-41
2022/04/27 03:42:18;;;;;;;;;;;25.20;41.30;;;;;;5076263;28;1387;-43
2022/04/27 03:44:47;;;;;;;;;;;25.20;41.30;;;;;;5075059;28;1073;-43
2022/04/27 03:47:15;;;;;;;;;;;25.20;41.40;;;;;;5076299;28;1985;-43
2022/04/27 03:49:42;;;;;;;;;;;25.20;41.40;;;;;;5076355;28;1529;-42
2022/04/27 03:52:09;;;;;;;;;;;25.20;41.40;;;;;;5075333;28;948;-42
2022/04/27 03:54:36;;;;;;;;;;;25.20;41.40;;;;;;5076051;28;912;-42
2022/04/27 03:57:02;;;;;;;;;;;25.20;41.40;;;;;;5076025;28;941;-43
2022/04/27 03:59:29;;;;;;;;;;;25.20;41.40;;;;;;5075414;28;968;-43
2022/04/27 04:01:56;;;;;;;;;;;25.20;41.40;;;;;;5075884;28;1003;-43
2022/04/27 04:04:24;;;;;;;;;;;25.20;41.40;;;;;;5075698;28;1015;-42
2022/04/27 04:06:51;;;;;;;;;;;25.20;41.40;;;;;;5074337;28;979;-43
2022/04/27 04:09:17;;;;;;;;;;;25.20;41.40;;;;;;5075132;28;1968;-42
2022/04/27 04:11:44;;;;;;;;;;;25.10;41.30;;;;;;5076658;28;1853;-42
2022/04/27 04:14:11;;;;;;;;;;;25.10;41.30;;;;;;5075986;28;961;-42
2022/04/27 04:16:38;;;;;;;;;;;25.20;41.30;;;;;;5075645;28;1011;-42
2022/04/27 04:19:05;;;;;;;;;;;25.20;41.30;;;;;;5074704;28;969;-42
2022/04/27 04:21:33;;;;;;;;;;;25.20;41.30;;;;;;5075086;28;960;-42
2022/04/27 04:23:59;;;;;;;;;;;25.20;41.30;;;;;;5074902;28;994;-42
2022/04/27 04:29:10;;;;;;;;;;;25.20;41.30;;;;;;5074598;28;1984;-44
2022/04/27 04:31:37;;;;;;;;;;;25.10;41.20;;;;;;5073347;28;969;-45
2022/04/27 04:34:04;;;;;;;;;;;25.10;41.30;;;;;;5074343;28;1093;-45
2022/04/27 04:36:31;;;;;;;;;;;25.10;41.30;;;;;;5074135;28;1016;-45
2022/04/27 04:38:59;;;;;;;;;;;25.10;41.30;;;;;;5073182;28;1023;-44
2022/04/27 04:41:26;;;;;;;;;;;25.10;41.30;;;;;;5073659;28;1012;-44
2022/04/27 04:43:52;;;;;;;;;;;25.10;41.30;;;;;;5073337;28;1100;-44
2022/04/27 04:46:19;;;;;;;;;;;25.10;41.30;;;;;;5070559;28;941;-44
2022/04/27 04:48:46;;;;;;;;;;;25.10;41.30;;;;;;5069945;28;1926;-44
2022/04/27 04:51:12;;;;;;;;;;;25.10;41.30;;;;;;5071953;28;948;-43
2022/04/27 04:53:39;;;;;;;;;;;25.10;41.30;;;;;;5072180;28;940;-43
2022/04/27 04:56:07;;;;;;;;;;;25.10;41.30;;;;;;5070997;28;1008;-45
2022/04/27 04:58:34;;;;;;;;;;;25.00;41.30;;;;;;5072490;28;929;-43
2022/04/27 05:01:01;;;;;;;;;;;25.10;41.30;;;;;;5071027;28;849;-43
2022/04/27 05:03:28;;;;;;;;;;;25.10;41.30;;;;;;5071319;28;916;-45
2022/04/27 05:05:55;;;;;;;;;;;25.10;41.40;;;;;;5069804;28;995;-43
2022/04/27 05:08:22;;;;;;;;;;;25.10;41.30;;;;;;5069240;28;1990;-43
2022/04/27 05:10:48;;;;;;;;;;;25.10;41.30;;;;;;5068195;28;1024;-43
2022/04/27 05:13:16;;;;;;;;;;;25.10;41.20;;;;;;5067274;28;1467;-43
2022/04/27 05:15:43;;;;;;;;;;;25.10;41.30;;;;;;5068771;28;897;-43
2022/04/27 05:18:10;;;;;;;;;;;25.10;41.30;;;;;;5065021;28;973;-43
2022/04/27 05:20:38;;;;;;;;;;;25.10;41.30;;;;;;5066265;28;1015;-44
2022/04/27 05:23:05;;;;;;;;;;;25.10;41.40;;;;;;5066554;28;957;-44
2022/04/27 05:25:33;;;;;;;;;;;25.10;41.40;;;;;;5066632;28;896;-44
2022/04/27 05:28:02;;;;;;;;;;;25.00;41.30;;;;;;5068017;28;1987;-46
2022/04/27 05:33:17;;;;;;;;;;;25.00;41.40;;;;;;5065643;28;1006;-44
2022/04/27 05:35:44;;;;;;;;;;;25.00;41.40;;;;;;5067091;28;1028;-44
2022/04/27 05:38:11;;;;;;;;;;;25.00;41.40;;;;;;5067876;28;1014;-44
2022/04/27 05:40:39;;;;;;;;;;;25.00;41.30;;;;;;5067768;28;1032;-44
2022/04/27 05:43:07;;;;;;;;;;;25.10;41.40;;;;;;5067345;28;1094;-44
2022/04/27 05:45:35;;;;;;;;;;;25.10;41.30;;;;;;5068246;28;877;-46
2022/04/27 05:48:03;;;;;;;;;;;25.00;41.40;;;;;;5068089;28;1983;-44
2022/04/27 05:50:29;;;;;;;;;;;25.00;41.40;;;;;;5067435;28;948;-44
2022/04/27 05:52:58;;;;;;;;;;;25.10;41.40;;;;;;5067644;28;1024;-44
2022/04/27 05:55:25;;;;;;;;;;;25.00;41.40;;;;;;5068580;28;1063;-44
2022/04/27 05:57:51;;;;;;;;;;;25.00;41.40;;;;;;5068084;28;975;-44
2022/04/27 06:00:19;;;;;;;;;;;25.00;41.40;;;;;;5068799;28;881;-44
2022/04/27 06:02:47;;;;;;;;;;;25.00;41.50;;;;;;5068661;28;937;-44
2022/04/27 06:05:14;;;;;;;;;;;25.00;41.70;;;;;;5067537;28;940;-44
2022/04/27 06:07:41;;;;;;;;;;;25.00;41.60;;;;;;5065814;28;918;-44
2022/04/27 06:10:08;;;;;;;;;;;25.00;41.40;;;;;;5066128;28;1890;-44
2022/04/27 06:12:36;;;;;;;;;;;25.00;41.50;;;;;;5067647;28;1016;-44
2022/04/27 06:15:04;;;;;;;;;;;25.00;41.50;;;;;;5067225;28;901;-44
2022/04/27 06:17:31;;;;;;;;;;;25.00;41.50;;;;;;5067563;28;1031;-44
2022/04/27 06:19:59;;;;;;;;;;;25.00;41.40;;;;;;5067472;28;886;-44
2022/04/27 06:22:26;;;;;;;;;;;25.10;41.50;;;;;;5068982;28;937;-44
2022/04/27 06:24:52;;;;;;;;;;;25.10;41.50;;;;;;5067565;28;980;-41
2022/04/27 06:27:19;;;;;;;;;;;25.00;41.50;;;;;;5066150;28;941;-41
2022/04/27 06:29:46;;;;;;;;;;;25.00;41.50;;;;;;5067284;28;1973;-42
2022/04/27 06:32:13;;;;;;;;;;;25.00;41.50;;;;;;5066538;28;932;-39
2022/04/27 06:34:39;;;;;;;;;;;25.00;41.60;;;;;;5066598;28;1762;-42
2022/04/27 06:37:07;;;;;;;;;;;25.00;41.50;;;;;;5065320;28;948;-40
2022/04/27 06:39:34;;;;;;;;;;;25.00;41.50;;;;;;5067120;28;861;-42
2022/04/27 06:42:01;;;;;;;;;;;25.00;41.50;;;;;;5067550;28;1248;-41
2022/04/27 06:44:27;;;;;;;;;;;25.00;41.50;;;;;;5067742;28;989;-41
2022/04/27 06:46:54;;;;;;;;;;;25.00;41.50;;;;;;5067883;28;879;-41
2022/04/27 06:49:21;;;;;;;;;;;25.00;41.50;;;;;;5066091;28;1906;-41
2022/04/27 06:51:47;;;;;;;;;;;25.00;41.50;;;;;;5066866;28;1041;-41
2022/04/27 06:54:15;;;;;;;;;;;25.00;41.50;;;;;;5066191;28;890;-42
2022/04/27 06:56:42;;;;;;;;;;;25.00;41.50;;;;;;5066653;28;889;-38
2022/04/27 06:59:09;;;;;;;;;;;25.00;41.50;;;;;;5066522;28;1021;-41
2022/04/27 07:01:36;;;;;;;;;;;25.00;41.50;;;;;;5065674;28;984;-42
2022/04/27 07:04:07;;;;;;;;;;;25.00;41.50;;;;;;5065720;28;999;-42
2022/04/27 07:06:34;;;;;;;;;;;25.00;41.70;;;;;;5065137;28;925;-38
2022/04/27 07:09:01;;;;;;;;;;;25.00;41.70;;;;;;5063947;28;1906;-42
2022/04/27 07:11:29;;;;;;;;;;;25.00;41.70;;;;;;5066795;28;870;-41
2022/04/27 07:13:56;;;;;;;;;;;25.00;41.70;;;;;;5066373;28;1776;-41
2022/04/27 07:16:23;;;;;;;;;;;25.00;41.70;;;;;;5064525;28;874;-42
2022/04/27 07:18:53;;;;;;;;;;;25.00;41.70;;;;;;5065354;28;1086;-42
2022/04/27 07:21:20;;;;;;;;;;;25.00;41.60;;;;;;5064252;28;1052;-42
2022/04/27 07:23:47;;;;;;;;;;;25.00;41.70;;;;;;5064045;28;865;-40
2022/04/27 07:26:13;;;;;;;;;;;25.00;41.70;;;;;;5064575;28;949;-39
2022/04/27 07:28:42;;;;;;;;;;;25.00;41.70;;;;;;5063995;28;2072;-42
2022/04/27 07:31:09;;;;;;;;;;;25.00;41.70;;;;;;5063971;28;956;-42
2022/04/27 07:33:36;;;;;;;;;;;25.00;41.70;;;;;;5064136;28;1004;-41
2022/04/27 07:36:05;;;;;;;;;;;25.00;41.70;;;;;;5065626;28;1015;-41
2022/04/27 07:38:32;;;;;;;;;;;25.00;41.70;;;;;;5064751;28;897;-42
2022/04/27 07:40:58;;;;;;;;;;;25.00;41.70;;;;;;5065191;28;1179;-40
2022/04/27 07:43:25;;;;;;;;;;;25.00;41.70;;;;;;5066179;28;980;-39
2022/04/27 07:45:53;;;;;;;;;;;25.00;41.70;;;;;;5065537;28;996;-42
2022/04/27 07:48:20;;;;;;;;;;;25.00;41.70;;;;;;5066461;28;1902;-40
2022/04/27 07:50:46;;;;;;;;;;;25.00;41.80;;;;;;5064949;28;1028;-41
2022/04/27 07:53:13;;;;;;;;;;;25.00;41.70;;;;;;5063746;28;874;-39
2022/04/27 07:55:40;;;;;;;;;;;25.00;41.70;;;;;;5063822;28;1185;-42
2022/04/27 07:58:07;;;;;;;;;;;25.00;41.70;;;;;;5065050;28;897;-42
2022/04/27 08:00:33;;;;;;;;;;;25.00;41.70;;;;;;5066650;28;940;-38
2022/04/27 08:03:02;;;;;;;;;;;25.00;41.80;;;;;;5066416;28;916;-41
2022/04/27 08:05:28;;;;;;;;;;;25.00;41.70;;;;;;5066297;28;936;-41
2022/04/27 08:07:55;;;;;;;;;;;25.10;41.80;;;;;;5066642;28;877;-42
2022/04/27 08:10:22;;;;;;;;;;;25.00;41.80;;;;;;5067195;28;1906;-41
2022/04/27 08:12:49;;;;;;;;;;;25.00;41.70;;;;;;5067055;28;968;-44
2022/04/27 08:15:17;;;;;;;;;;;25.10;41.80;;;;;;5066395;28;838;-43
2022/04/27 08:17:51;;;;;;;;;;;25.00;41.70;;;;;;5068206;28;1358;-44
2022/04/27 08:23:06;;;;;;;;;;;25.10;41.80;;;;;;5066294;28;935;-46
2022/04/27 08:25:33;;;;;;;;;;;25.00;41.70;;;;;;5067543;28;1041;-44
2022/04/27 08:27:59;;;;;;;;;;;25.10;41.60;;;;;;5067149;28;1002;-44
2022/04/27 08:30:26;;;;;;;;;;;25.00;41.50;;;;;;5067188;28;1978;-44
2022/04/27 08:32:53;;;;;;;;;;;25.00;41.70;;;;;;5069278;28;1047;-42
2022/04/27 08:35:21;;;;;;;;;;;25.00;41.70;;;;;;5067600;28;999;-42
2022/04/27 08:37:48;;;;;;;;;;;25.00;41.70;;;;;;5069075;28;1007;-41
2022/04/27 08:40:14;;;;;;;;;;;25.00;41.80;;;;;;5066558;28;1179;-42
2022/04/27 08:42:41;;;;;;;;;;;25.00;41.70;;;;;;5067253;28;997;-41
2022/04/27 08:45:08;;;;;;;;;;;25.00;41.70;;;;;;5066458;28;940;-41
2022/04/27 08:47:35;;;;;;;;;;;25.00;41.70;;;;;;5067189;28;1005;-41
2022/04/27 08:50:10;;;;;;;;;;;25.10;41.80;;;;;;5065878;28;1898;-41
2022/04/27 08:52:40;;;;;;;;;;;25.00;41.70;;;;;;5068044;28;1189;-41
2022/04/27 08:55:07;;;;;;;;;;;25.10;41.80;;;;;;5066246;28;1019;-38
2022/04/27 08:57:34;;;;;;;;;;;25.00;41.80;;;;;;5064164;28;1091;-41
2022/04/27 09:00:01;;;;;;;;;;;25.00;41.80;;;;;;5065649;28;850;-39
2022/04/27 09:02:28;;;;;;;;;;;25.10;41.80;;;;;;5063880;28;996;-42
2022/04/27 09:05:11;;;;;;;;;;;25.00;41.70;;;;;;5064115;28;971;-41
2022/04/27 09:07:40;;;;;;;;;;;25.00;41.80;;;;;;5065230;28;984;-44
2022/04/27 09:10:08;;;;;;;;;;;25.00;41.70;;;;;;5064660;28;1992;-43
2022/04/27 09:12:36;;;;;;;;;;;25.00;41.80;;;;;;5065156;28;1025;-43
2022/04/27 09:15:06;;;;;;;;;;;25.00;41.80;;;;;;5063922;28;862;-43
2022/04/27 09:23:03;;;;;;;;;;;25.00;41.80;;;;;;5064020;28;856;-41
2022/04/27 09:25:31;;;;;;;;;;;25.10;41.80;;;;;;5064494;28;1044;-45
2022/04/27 09:27:57;;;;;;;;;;;25.10;41.80;;;;;;5065643;28;936;-44
2022/04/27 09:30:26;;;;;;;;;;;25.10;41.80;;;;;;5064216;28;1980;-43
2022/04/27 09:32:53;;;;;;;;;;;25.00;41.70;;;;;;5062755;28;969;-45
2022/04/27 09:35:29;;;;;;;;;;;25.00;41.70;;;;;;5064495;28;1097;-41
2022/04/27 09:37:56;;;;;;;;;;;25.00;41.80;;;;;;5064839;28;1002;-45
2022/04/27 09:40:25;;;;;;;;;;;25.00;41.70;;;;;;5064705;28;1159;-47
2022/04/27 09:42:59;;;;;;;;;;;25.00;41.70;;;;;;5063559;28;877;-45
2022/04/27 09:45:26;;;;;;;;;;;25.10;41.90;;;;;;5062520;28;1003;-45
2022/04/27 09:47:57;;;;;;;;;;;25.10;41.80;;;;;;5063831;28;1344;-48
2022/04/27 09:50:24;;;;;;;;;;;25.10;41.80;;;;;;5065820;28;1909;-44
2022/04/27 09:52:51;;;;;;;;;;;25.10;41.80;;;;;;5063228;28;1008;-44
2022/04/27 09:55:18;;;;;;;;;;;25.10;41.80;;;;;;5063857;28;1023;-44
2022/04/27 09:57:47;;;;;;;;;;;25.10;41.80;;;;;;5065370;28;956;-44
2022/04/27 10:00:15;;;;;;;;;;;25.10;41.80;;;;;;5066210;28;1845;-44
2022/04/27 10:02:44;;;;;;;;;;;25.10;41.70;;;;;;5065463;28;1007;-45
2022/04/27 10:05:10;;;;;;;;;;;25.10;41.80;;;;;;5064410;28;885;-43
2022/04/27 10:07:38;;;;;;;;;;;25.10;41.80;;;;;;5065482;28;874;-43
2022/04/27 10:10:05;;;;;;;;;;;25.10;41.80;;;;;;5066542;28;1902;-44
2022/04/27 10:12:35;;;;;;;;;;;25.10;41.80;;;;;;5066004;28;1005;-44
2022/04/27 10:15:05;;;;;;;;;;;25.10;41.80;;;;;;5065776;28;1020;-44
2022/04/27 10:17:32;;;;;;;;;;;25.10;41.80;;;;;;5065467;28;996;-43
2022/04/27 10:19:59;;;;;;;;;;;25.10;41.80;;;;;;5065394;28;1114;-43
2022/04/27 10:22:27;;;;;;;;;;;25.10;41.80;;;;;;5066903;28;1012;-44
2022/04/27 10:24:55;;;;;;;;;;;25.10;41.80;;;;;;5065812;28;965;-44
2022/04/27 10:27:22;;;;;;;;;;;25.10;41.80;;;;;;5066526;28;984;-44
2022/04/27 10:29:53;;;;;;;;;;;25.10;41.80;;;;;;5061658;28;1883;-44
2022/04/27 10:32:37;;;;;;;;;;;25.10;41.80;;;;;;5061573;28;1089;-44
2022/04/27 10:35:25;;;;;;;;;;;25.10;41.80;;;;;;5062988;28;896;-44
2022/04/27 10:37:54;;;;;;;;;;;25.20;41.90;;;;;;5064208;28;968;-44
2022/04/27 10:40:29;;;;;;;;;;;25.10;41.80;;;;;;5064690;28;1174;-44
2022/04/27 10:43:01;;;;;;;;;;;25.20;43.00;;;;;;5067394;28;1037;-43
2022/04/27 10:45:28;;;;;;;;;;;25.20;43.00;;;;;;5066122;28;1006;-44
2022/04/27 10:47:56;;;;;;;;;;;25.20;41.90;;;;;;5065801;28;985;-44
2022/04/27 10:50:28;;;;;;;;;;;25.20;41.90;;;;;;5067939;28;1914;-43
2022/04/27 10:52:56;;;;;;;;;;;25.20;41.80;;;;;;5067304;28;988;-44
2022/04/27 10:55:41;;;;;;;;;;;25.20;41.90;;;;;;5059462;28;2133;-44
2022/04/27 10:58:15;;;;;;;;;;;25.20;41.90;;;;;;5066468;28;1186;-44
2022/04/27 11:01:01;;;;;;;;;;;25.20;41.90;;;;;;5063972;28;1015;-43
2022/04/27 11:03:29;;;;;;;;;;;25.20;41.80;;;;;;5061382;28;993;-43
2022/04/27 11:05:57;;;;;;;;;;;25.20;41.80;;;;;;5061711;28;1015;-43
2022/04/27 11:08:28;;;;;;;;;;;25.20;41.90;;;;;;5060409;28;891;-44
2022/04/27 11:10:56;;;;;;;;;;;25.20;41.90;;;;;;5059681;28;1905;-44
2022/04/27 11:13:26;;;;;;;;;;;25.20;41.90;;;;;;5061263;28;1002;-44
2022/04/27 11:15:53;;;;;;;;;;;25.20;42.20;;;;;;5063214;28;1035;-43
2022/04/27 11:18:20;;;;;;;;;;;25.20;41.90;;;;;;5062710;28;984;-44
2022/04/27 11:20:48;;;;;;;;;;;25.20;41.90;;;;;;5060792;28;885;-44
2022/04/27 11:23:21;;;;;;;;;;;25.20;41.90;;;;;;5062469;28;1018;-44
2022/04/27 11:25:50;;;;;;;;;;;25.20;41.80;;;;;;5062325;28;924;-43
2022/04/27 11:28:17;;;;;;;;;;;25.20;41.90;;;;;;5064231;28;1031;-42
2022/04/27 11:30:45;;;;;;;;;;;25.10;41.80;;;;;;5064016;28;1914;-44
2022/04/27 11:33:13;;;;;;;;;;;25.20;41.80;;;;;;5064580;28;1042;-44
2022/04/27 11:35:40;;;;;;;;;;;25.20;41.80;;;;;;5067098;28;989;-42
2022/04/27 11:38:09;;;;;;;;;;;25.20;41.50;;;;;;5067047;28;985;-45
2022/04/27 11:40:37;;;;;;;;;;;25.20;41.60;;;;;;5068363;28;1104;-45
2022/04/27 11:43:05;;;;;;;;;;;25.20;41.60;;;;;;5065820;28;1148;-43
2022/04/27 11:45:33;;;;;;;;;;;25.20;41.50;;;;;;5067946;28;889;-44
2022/04/27 11:48:00;;;;;;;;;;;25.20;41.50;;;;;;5065264;28;860;-40
2022/04/27 11:50:27;;;;;;;;;;;25.20;41.40;;;;;;5065603;28;1910;-42
2022/04/27 11:53:00;;;;;;;;;;;25.20;41.40;;;;;;5068017;28;901;-41
2022/04/27 11:55:28;;;;;;;;;;;25.20;41.40;;;;;;5067028;28;871;-41
2022/04/27 11:57:55;;;;;;;;;;;25.10;41.30;;;;;;5067819;28;983;-42
2022/04/27 12:00:23;;;;;;;;;;;25.10;41.20;;;;;;5067685;28;874;-40
2022/04/27 12:02:50;;;;;;;;;;;25.20;41.30;;;;;;5068943;28;986;-39
2022/04/27 12:05:17;;;;;;;;;;;25.20;41.20;;;;;;5069657;28;834;-41
2022/04/27 12:07:49;;;;;;;;;;;25.20;41.10;;;;;;5068110;28;960;-41
2022/04/27 12:10:15;;;;;;;;;;;25.20;41.30;;;;;;5065627;28;1990;-44
2022/04/27 12:12:43;;;;;;;;;;;25.20;41.10;;;;;;5064035;28;1055;-44
2022/04/27 12:15:11;;;;;;;;;;;25.20;41.20;;;;;;5067389;28;948;-44
2022/04/27 12:17:48;;;;;;;;;;;25.20;41.20;;;;;;5068557;28;1010;-43
2022/04/27 12:20:31;;;;;;;;;;;25.20;41.20;;;;;;5068384;28;933;-43
2022/04/27 12:23:00;;;;;;;;;;;25.10;41.20;;;;;;5067540;28;1101;-40
2022/04/27 12:25:40;;;;;;;;;;;25.20;41.20;;;;;;5069450;28;997;-44
2022/04/27 12:28:10;;;;;;;;;;;25.20;41.20;;;;;;5068104;28;915;-44
2022/04/27 12:30:42;;;;;;;;;;;25.10;41.10;;;;;;5067054;28;1981;-44
2022/04/27 12:33:09;;;;;;;;;;;25.10;41.20;;;;;;5067992;28;1001;-44
2022/04/27 12:38:20;;;;;;;;;;;25.20;41.10;;;;;;5069739;28;1040;-44
2022/04/27 12:40:47;;;;;;;;;;;25.20;41.30;;;;;;5068659;28;1158;-44
2022/04/27 12:43:17;;;;;;;;;;;25.20;41.20;;;;;;5069120;28;1000;-42
2022/04/27 12:46:01;;;;;;;;;;;25.20;41.30;;;;;;5069737;28;1039;-42
2022/04/27 12:48:28;;;;;;;;;;;25.20;41.20;;;;;;5068060;28;868;-44
2022/04/27 12:50:55;;;;;;;;;;;25.20;41.20;;;;;;5067619;28;1902;-44
2022/04/27 12:53:22;;;;;;;;;;;25.20;41.30;;;;;;5066721;28;1024;-44
2022/04/27 12:56:00;;;;;;;;;;;25.20;41.30;;;;;;5066994;28;983;-43
2022/04/27 12:58:29;;;;;;;;;;;25.20;41.10;;;;;;5066485;28;942;-45
2022/04/27 13:00:56;;;;;;;;;;;25.20;41.10;;;;;;5064072;28;906;-45
2022/04/27 13:03:23;;;;;;;;;;;25.20;41.00;;;;;;5066824;28;1001;-45
2022/04/27 13:05:51;;;;;;;;;;;25.20;41.10;;;;;;5061545;28;1038;-43
2022/04/27 13:08:18;;;;;;;;;;;25.30;41.20;;;;;;5061581;28;916;-43
2022/04/27 13:13:32;;;;;;;;;;;25.30;41.00;;;;;;5065240;28;873;-43
2022/04/27 13:15:59;;;;;;;;;;;25.30;41.00;;;;;;5067288;28;893;-43
2022/04/27 13:18:25;;;;;;;;;;;25.30;41.00;;;;;;5066693;28;885;-45
2022/04/27 13:20:53;;;;;;;;;;;25.30;41.10;;;;;;5066343;28;989;-45
2022/04/27 13:23:20;;;;;;;;;;;25.30;41.20;;;;;;5067504;28;1083;-45
2022/04/27 13:25:47;;;;;;;;;;;25.30;41.00;;;;;;5069957;28;1012;-45
2022/04/27 13:28:14;;;;;;;;;;;25.30;41.20;;;;;;5067780;28;925;-44
2022/04/27 13:30:42;;;;;;;;;;;25.30;41.20;;;;;;5065433;28;1990;-44
2022/04/27 13:33:09;;;;;;;;;;;25.30;41.30;;;;;;5066445;28;1210;-42
2022/04/27 13:35:36;;;;;;;;;;;25.30;41.20;;;;;;5065308;28;881;-42
2022/04/27 13:38:05;;;;;;;;;;;25.30;41.20;;;;;;5067130;28;1011;-43
2022/04/27 13:40:31;;;;;;;;;;;25.30;41.20;;;;;;5064937;28;1097;-43
2022/04/27 13:42:58;;;;;;;;;;;25.30;41.20;;;;;;5065392;28;1039;-43
2022/04/27 13:45:25;;;;;;;;;;;25.30;41.30;;;;;;5064639;28;956;-44
2022/04/27 13:47:53;;;;;;;;;;;25.40;41.40;;;;;;5064533;28;877;-44
2022/04/27 13:50:20;;;;;;;;;;;25.40;41.30;;;;;;5065913;28;1989;-44
2022/04/27 13:52:47;;;;;;;;;;;25.40;41.20;;;;;;5062903;28;998;-44
2022/04/27 13:55:14;;;;;;;;;;;25.40;41.20;;;;;;5064241;28;1499;-44
2022/04/27 13:57:41;;;;;;;;;;;25.40;41.20;;;;;;5066627;28;1027;-44
2022/04/27 14:00:08;;;;;;;;;;;25.40;41.20;;;;;;5066319;28;885;-43
2022/04/27 14:02:35;;;;;;;;;;;25.40;41.20;;;;;;5064283;28;989;-43
2022/04/27 14:05:05;;;;;;;;;;;25.50;41.20;;;;;;5065297;28;953;-41
2022/04/27 14:07:35;;;;;;;;;;;25.40;41.10;;;;;;5067051;28;987;-39
2022/04/27 14:10:02;;;;;;;;;;;25.50;41.20;;;;;;5065589;28;877;-40
2022/04/27 14:15:13;;;;;;;;;;;25.50;41.20;;;;;;5070665;28;683;-41
2022/04/27 14:20:25;;;;;;;;;;;25.60;41.10;;;;;;5067284;28;643;-40
2022/04/27 14:22:52;;;;;;;;;;;25.60;41.00;;;;;;5065961;28;973;-40
2022/04/27 14:25:19;;;;;;;;;;;25.60;41.10;;;;;;5068919;28;980;-39
2022/04/27 14:27:46;;;;;;;;;;;25.60;41.00;;;;;;5068085;28;1015;-41
2022/04/27 14:30:13;;;;;;;;;;;25.60;41.20;;;;;;5066610;28;908;-41
2022/04/27 14:32:40;;;;;;;;;;;25.60;41.00;;;;;;5066094;28;1941;-41
2022/04/27 14:35:08;;;;;;;;;;;25.60;41.00;;;;;;5067887;28;1655;-39
2022/04/27 14:37:36;;;;;;;;;;;25.70;41.00;;;;;;5064854;28;977;-40
2022/04/27 14:40:03;;;;;;;;;;;25.70;40.90;;;;;;5065058;28;1052;-41
2022/04/27 14:42:32;;;;;;;;;;;25.70;41.00;;;;;;5066118;28;980;-39
2022/04/27 14:44:59;;;;;;;;;;;25.70;40.90;;;;;;5067070;28;993;-41
2022/04/27 14:47:26;;;;;;;;;;;25.80;41.00;;;;;;5067212;28;971;-43
2022/04/27 14:49:52;;;;;;;;;;;25.70;41.00;;;;;;5067055;28;996;-41
2022/04/27 14:52:19;;;;;;;;;;;25.70;41.10;;;;;;5066489;28;1910;-43
2022/04/27 14:54:47;;;;;;;;;;;25.70;41.10;;;;;;5066462;28;1011;-43
2022/04/27 14:57:14;;;;;;;;;;;25.70;41.10;;;;;;5067097;28;957;-43
2022/04/27 14:59:41;;;;;;;;;;;25.80;41.20;;;;;;5068301;28;853;-38
2022/04/27 15:02:08;;;;;;;;;;;25.80;41.20;;;;;;5068209;28;1048;-40
2022/04/27 15:04:35;;;;;;;;;;;25.80;41.10;;;;;;5068225;28;1029;-40
2022/04/27 15:07:01;;;;;;;;;;;25.80;41.20;;;;;;5069938;28;1017;-39
2022/04/27 15:09:28;;;;;;;;;;;25.90;41.10;;;;;;5070391;28;838;-37
2022/04/27 15:11:56;;;;;;;;;;;25.90;41.10;;;;;;5069879;28;1902;-38
2022/04/27 15:14:23;;;;;;;;;;;25.90;42.20;;;;;;5070630;28;1029;-41
2022/04/27 15:16:50;;;;;;;;;;;25.90;41.00;;;;;;5069499;28;1026;-41